Startpagina
METAR-TAF:

METAR-TAF

Vliegvelden :

Diest, België

Schaffen

breedte: 51-00N, lengte: 005-04E, hoogte: 30 m

Actueel weer

Dit bericht is 45 minuten geleden gemaakt, om 06:55 UTC
Wind 4 kt uit het westnoordwesten
Temperatuur 7°C
Vochtigheid 100%
Druk 1008 hPa
Zicht: 8000 m
Weinig wolken op 200 ft
Gebroken wolken op 1500 ft

METAR: EBDT 240655Z 29004KT 8000 FEW002 BKN015 07/07 Q1008 WHT WHT TEMPO GRN

Tijdstip: 08:40 (07:40 UTC)

Verwachting

Dit bericht is 1 uur en het 59 minuten geleden gemaakt, om 05:41 UTC
Verwachting geldig van 24 om 07 UTC tot 24 om 16 UTC
Wind 3 kt uit het westzuidwesten
Zicht: 6000 m
Verspreide wolken op 700 ft
Gebroken wolken op 2000 ft
lichte regen
Tijdelijke
van 24 om 07 UTC tot 24 om 09 UTC
Zicht: 4000 m
Verspreide wolken op 500 ft
Gebroken wolken op 1500 ft
regen
Wijzigt naar
van 24 om 11 UTC tot 24 om 13 UTC
Zicht: 8000 m
Gebroken wolken op 3000 ft

TAF: EBDT 240541Z 2407/2416 25003KT 6000 -RA SCT007 BKN020 TEMPO 2407/2409 4000 RA SCT005 BKN015 BECMG 2411/2413 8000 BKN030

Waarnemingen en weersverwachtingen van meer dan 4000 vliegvelden (METAR en TAF).

De beschikbare stations zijn de gele en rode punten op de kaart.

Ga met uw muis naar het station om de naam te zien.

Klik dan om waarnemingen en weersverwachtingen te zien.

kaart wijzigen: klik op de groene knoppen met een zwart kruis om in te zoomen, op de groene knop met een streepje om uit te zoomen of op de groene pijlen voor aangrenzende kaarten.


METAR-TAF: